sensor_id;sensor_type;location;lat;lon;timestamp;P1;durP1;ratioP1;P2;durP2;ratioP2
13685;SDS011;6915;48.296;8.874;2023-01-19T00:01:24;21.10;;;10.47;;
13685;SDS011;6915;48.296;8.874;2023-01-19T00:03:53;18.00;;;9.27;;
13685;SDS011;6915;48.296;8.874;2023-01-19T00:06:22;13.67;;;8.30;;
13685;SDS011;6915;48.296;8.874;2023-01-19T00:08:50;13.10;;;7.50;;
13685;SDS011;6915;48.296;8.874;2023-01-19T00:11:19;11.53;;;7.27;;
13685;SDS011;6915;48.296;8.874;2023-01-19T00:13:48;10.23;;;6.97;;
13685;SDS011;6915;48.296;8.874;2023-01-19T00:16:19;11.73;;;6.97;;
13685;SDS011;6915;48.296;8.874;2023-01-19T00:18:49;11.63;;;7.07;;
13685;SDS011;6915;48.296;8.874;2023-01-19T00:21:18;12.80;;;7.43;;
13685;SDS011;6915;48.296;8.874;2023-01-19T00:23:47;10.97;;;6.97;;
13685;SDS011;6915;48.296;8.874;2023-01-19T00:26:18;9.47;;;6.40;;
13685;SDS011;6915;48.296;8.874;2023-01-19T00:28:47;10.87;;;6.50;;
13685;SDS011;6915;48.296;8.874;2023-01-19T00:31:17;9.67;;;6.10;;
13685;SDS011;6915;48.296;8.874;2023-01-19T00:33:45;10.03;;;6.50;;
13685;SDS011;6915;48.296;8.874;2023-01-19T00:36:16;12.73;;;5.90;;
13685;SDS011;6915;48.296;8.874;2023-01-19T00:38:44;10.43;;;6.10;;
13685;SDS011;6915;48.296;8.874;2023-01-19T00:41:14;9.23;;;6.27;;
13685;SDS011;6915;48.296;8.874;2023-01-19T00:43:43;10.67;;;6.77;;
13685;SDS011;6915;48.296;8.874;2023-01-19T00:46:13;8.37;;;5.77;;
13685;SDS011;6915;48.296;8.874;2023-01-19T00:48:43;12.03;;;6.80;;
13685;SDS011;6915;48.296;8.874;2023-01-19T00:51:11;10.17;;;6.20;;
13685;SDS011;6915;48.296;8.874;2023-01-19T00:53:40;10.87;;;6.60;;
13685;SDS011;6915;48.296;8.874;2023-01-19T00:56:07;10.87;;;5.83;;
13685;SDS011;6915;48.296;8.874;2023-01-19T00:58:36;13.13;;;6.80;;
13685;SDS011;6915;48.296;8.874;2023-01-19T01:01:05;8.40;;;5.60;;
13685;SDS011;6915;48.296;8.874;2023-01-19T01:03:34;10.97;;;6.80;;
13685;SDS011;6915;48.296;8.874;2023-01-19T01:06:04;11.40;;;6.33;;
13685;SDS011;6915;48.296;8.874;2023-01-19T01:08:33;8.93;;;5.57;;
13685;SDS011;6915;48.296;8.874;2023-01-19T01:11:02;9.97;;;6.13;;
13685;SDS011;6915;48.296;8.874;2023-01-19T01:13:32;10.60;;;5.70;;
13685;SDS011;6915;48.296;8.874;2023-01-19T01:16:02;12.47;;;6.50;;
13685;SDS011;6915;48.296;8.874;2023-01-19T01:18:33;10.57;;;6.73;;
13685;SDS011;6915;48.296;8.874;2023-01-19T01:21:04;10.67;;;6.60;;
13685;SDS011;6915;48.296;8.874;2023-01-19T01:23:34;12.77;;;6.77;;
13685;SDS011;6915;48.296;8.874;2023-01-19T01:26:03;12.50;;;6.60;;
13685;SDS011;6915;48.296;8.874;2023-01-19T01:28:32;9.37;;;5.93;;
13685;SDS011;6915;48.296;8.874;2023-01-19T01:31:02;7.60;;;5.53;;
13685;SDS011;6915;48.296;8.874;2023-01-19T01:33:32;9.07;;;5.53;;
13685;SDS011;6915;48.296;8.874;2023-01-19T01:36:01;11.80;;;6.03;;
13685;SDS011;6915;48.296;8.874;2023-01-19T01:38:33;8.80;;;5.97;;
13685;SDS011;6915;48.296;8.874;2023-01-19T01:41:01;8.57;;;5.47;;
13685;SDS011;6915;48.296;8.874;2023-01-19T01:43:41;11.07;;;6.00;;
13685;SDS011;6915;48.296;8.874;2023-01-19T01:46:09;10.17;;;5.50;;
13685;SDS011;6915;48.296;8.874;2023-01-19T01:48:41;8.40;;;5.83;;
13685;SDS011;6915;48.296;8.874;2023-01-19T01:51:12;7.80;;;5.40;;
13685;SDS011;6915;48.296;8.874;2023-01-19T01:53:56;8.87;;;5.50;;
13685;SDS011;6915;48.296;8.874;2023-01-19T01:56:36;11.82;;;5.60;;
13685;SDS011;6915;48.296;8.874;2023-01-19T01:59:08;10.27;;;6.57;;
13685;SDS011;6915;48.296;8.874;2023-01-19T02:01:42;10.73;;;6.77;;
13685;SDS011;6915;48.296;8.874;2023-01-19T02:04:29;10.37;;;6.10;;
13685;SDS011;6915;48.296;8.874;2023-01-19T02:06:58;10.93;;;6.47;;
13685;SDS011;6915;48.296;8.874;2023-01-19T02:09:46;13.33;;;6.70;;
13685;SDS011;6915;48.296;8.874;2023-01-19T02:12:33;12.53;;;6.40;;
13685;SDS011;6915;48.296;8.874;2023-01-19T02:15:20;8.47;;;5.57;;
13685;SDS011;6915;48.296;8.874;2023-01-19T02:17:48;9.40;;;5.53;;
13685;SDS011;6915;48.296;8.874;2023-01-19T02:20:17;10.90;;;6.57;;
13685;SDS011;6915;48.296;8.874;2023-01-19T02:22:51;9.13;;;5.80;;
13685;SDS011;6915;48.296;8.874;2023-01-19T02:25:22;10.90;;;5.60;;
13685;SDS011;6915;48.296;8.874;2023-01-19T02:27:51;8.13;;;5.53;;
13685;SDS011;6915;48.296;8.874;2023-01-19T02:30:21;11.70;;;5.60;;
13685;SDS011;6915;48.296;8.874;2023-01-19T02:32:50;8.30;;;5.37;;
13685;SDS011;6915;48.296;8.874;2023-01-19T02:35:19;9.93;;;5.50;;
13685;SDS011;6915;48.296;8.874;2023-01-19T02:37:50;9.37;;;5.57;;
13685;SDS011;6915;48.296;8.874;2023-01-19T02:40:20;10.70;;;5.97;;
13685;SDS011;6915;48.296;8.874;2023-01-19T02:42:51;11.93;;;6.30;;
13685;SDS011;6915;48.296;8.874;2023-01-19T02:45:22;9.30;;;5.67;;
13685;SDS011;6915;48.296;8.874;2023-01-19T02:47:52;11.20;;;5.63;;
13685;SDS011;6915;48.296;8.874;2023-01-19T02:50:34;9.10;;;5.47;;
13685;SDS011;6915;48.296;8.874;2023-01-19T02:53:05;9.37;;;5.53;;
13685;SDS011;6915;48.296;8.874;2023-01-19T02:55:47;8.67;;;5.50;;
13685;SDS011;6915;48.296;8.874;2023-01-19T02:58:21;9.50;;;5.60;;
13685;SDS011;6915;48.296;8.874;2023-01-19T03:00:59;7.37;;;5.20;;
13685;SDS011;6915;48.296;8.874;2023-01-19T03:03:38;8.00;;;5.13;;
13685;SDS011;6915;48.296;8.874;2023-01-19T03:06:14;8.57;;;4.73;;
13685;SDS011;6915;48.296;8.874;2023-01-19T03:08:46;9.90;;;4.80;;
13685;SDS011;6915;48.296;8.874;2023-01-19T03:11:20;10.10;;;5.90;;
13685;SDS011;6915;48.296;8.874;2023-01-19T03:13:55;9.37;;;6.13;;
13685;SDS011;6915;48.296;8.874;2023-01-19T03:16:29;10.63;;;6.17;;
13685;SDS011;6915;48.296;8.874;2023-01-19T03:19:05;12.53;;;6.83;;
13685;SDS011;6915;48.296;8.874;2023-01-19T03:21:41;11.03;;;6.20;;
13685;SDS011;6915;48.296;8.874;2023-01-19T03:24:16;13.17;;;6.83;;
13685;SDS011;6915;48.296;8.874;2023-01-19T03:26:48;12.43;;;6.37;;
13685;SDS011;6915;48.296;8.874;2023-01-19T03:29:23;12.10;;;6.50;;
13685;SDS011;6915;48.296;8.874;2023-01-19T03:31:53;9.40;;;5.80;;
13685;SDS011;6915;48.296;8.874;2023-01-19T03:34:26;10.67;;;5.00;;
13685;SDS011;6915;48.296;8.874;2023-01-19T03:36:56;9.40;;;4.87;;
13685;SDS011;6915;48.296;8.874;2023-01-19T03:39:28;8.87;;;5.00;;
13685;SDS011;6915;48.296;8.874;2023-01-19T03:41:59;9.23;;;5.53;;
13685;SDS011;6915;48.296;8.874;2023-01-19T03:44:31;11.23;;;6.40;;
13685;SDS011;6915;48.296;8.874;2023-01-19T03:47:01;12.67;;;7.33;;
13685;SDS011;6915;48.296;8.874;2023-01-19T03:49:34;18.17;;;7.03;;
13685;SDS011;6915;48.296;8.874;2023-01-19T03:52:04;13.40;;;7.07;;
13685;SDS011;6915;48.296;8.874;2023-01-19T03:54:33;15.20;;;7.10;;
13685;SDS011;6915;48.296;8.874;2023-01-19T03:57:03;9.20;;;5.57;;
13685;SDS011;6915;48.296;8.874;2023-01-19T03:59:33;17.00;;;8.13;;
13685;SDS011;6915;48.296;8.874;2023-01-19T04:02:01;10.07;;;6.60;;
13685;SDS011;6915;48.296;8.874;2023-01-19T04:04:32;12.70;;;7.43;;
13685;SDS011;6915;48.296;8.874;2023-01-19T04:07:14;11.00;;;5.67;;
13685;SDS011;6915;48.296;8.874;2023-01-19T04:12:56;11.07;;;6.00;;
13685;SDS011;6915;48.296;8.874;2023-01-19T04:15:29;8.73;;;5.07;;
13685;SDS011;6915;48.296;8.874;2023-01-19T04:18:02;9.90;;;4.97;;
13685;SDS011;6915;48.296;8.874;2023-01-19T04:23:48;7.53;;;5.33;;
13685;SDS011;6915;48.296;8.874;2023-01-19T04:26:23;7.57;;;5.00;;
13685;SDS011;6915;48.296;8.874;2023-01-19T04:29:16;8.70;;;5.10;;
13685;SDS011;6915;48.296;8.874;2023-01-19T04:31:45;7.90;;;4.53;;
13685;SDS011;6915;48.296;8.874;2023-01-19T04:34:13;9.60;;;5.53;;
13685;SDS011;6915;48.296;8.874;2023-01-19T04:36:43;7.90;;;5.13;;
13685;SDS011;6915;48.296;8.874;2023-01-19T04:39:15;6.70;;;4.40;;
13685;SDS011;6915;48.296;8.874;2023-01-19T04:41:43;7.27;;;5.00;;
13685;SDS011;6915;48.296;8.874;2023-01-19T04:44:12;10.27;;;5.60;;
13685;SDS011;6915;48.296;8.874;2023-01-19T04:46:42;7.97;;;4.33;;
13685;SDS011;6915;48.296;8.874;2023-01-19T04:49:13;8.93;;;4.90;;
13685;SDS011;6915;48.296;8.874;2023-01-19T04:51:42;10.10;;;5.00;;
13685;SDS011;6915;48.296;8.874;2023-01-19T04:54:11;8.13;;;5.13;;
13685;SDS011;6915;48.296;8.874;2023-01-19T04:56:41;9.53;;;5.63;;
13685;SDS011;6915;48.296;8.874;2023-01-19T04:59:10;13.03;;;5.83;;
13685;SDS011;6915;48.296;8.874;2023-01-19T05:01:39;13.17;;;5.83;;
13685;SDS011;6915;48.296;8.874;2023-01-19T05:04:09;9.13;;;5.77;;
13685;SDS011;6915;48.296;8.874;2023-01-19T05:06:38;8.97;;;5.57;;
13685;SDS011;6915;48.296;8.874;2023-01-19T05:09:06;8.97;;;5.40;;
13685;SDS011;6915;48.296;8.874;2023-01-19T05:11:39;8.13;;;5.20;;
13685;SDS011;6915;48.296;8.874;2023-01-19T05:14:09;13.03;;;5.17;;
13685;SDS011;6915;48.296;8.874;2023-01-19T05:16:39;8.50;;;5.17;;
13685;SDS011;6915;48.296;8.874;2023-01-19T05:19:09;9.20;;;4.70;;
13685;SDS011;6915;48.296;8.874;2023-01-19T05:21:38;7.07;;;5.00;;
13685;SDS011;6915;48.296;8.874;2023-01-19T05:24:07;8.47;;;5.07;;
13685;SDS011;6915;48.296;8.874;2023-01-19T05:26:36;9.73;;;5.40;;
13685;SDS011;6915;48.296;8.874;2023-01-19T05:29:05;13.47;;;6.13;;
13685;SDS011;6915;48.296;8.874;2023-01-19T05:31:34;19.43;;;8.10;;
13685;SDS011;6915;48.296;8.874;2023-01-19T05:34:06;12.33;;;6.20;;
13685;SDS011;6915;48.296;8.874;2023-01-19T05:36:37;22.77;;;8.37;;
13685;SDS011;6915;48.296;8.874;2023-01-19T05:39:05;13.70;;;6.47;;
13685;SDS011;6915;48.296;8.874;2023-01-19T05:41:35;15.37;;;6.63;;
13685;SDS011;6915;48.296;8.874;2023-01-19T05:44:04;23.67;;;10.03;;
13685;SDS011;6915;48.296;8.874;2023-01-19T05:46:33;29.33;;;13.60;;
13685;SDS011;6915;48.296;8.874;2023-01-19T05:49:02;23.73;;;10.87;;
13685;SDS011;6915;48.296;8.874;2023-01-19T05:51:32;14.37;;;7.13;;
13685;SDS011;6915;48.296;8.874;2023-01-19T05:54:04;31.80;;;12.53;;
13685;SDS011;6915;48.296;8.874;2023-01-19T05:56:34;27.73;;;11.93;;
13685;SDS011;6915;48.296;8.874;2023-01-19T05:59:03;35.90;;;14.80;;
13685;SDS011;6915;48.296;8.874;2023-01-19T06:01:32;34.93;;;14.23;;
13685;SDS011;6915;48.296;8.874;2023-01-19T06:04:02;24.77;;;10.97;;
13685;SDS011;6915;48.296;8.874;2023-01-19T06:06:34;15.57;;;7.33;;
13685;SDS011;6915;48.296;8.874;2023-01-19T06:09:03;12.30;;;6.90;;
13685;SDS011;6915;48.296;8.874;2023-01-19T06:11:33;16.77;;;7.67;;
13685;SDS011;6915;48.296;8.874;2023-01-19T06:17:02;22.53;;;9.10;;
13685;SDS011;6915;48.296;8.874;2023-01-19T06:19:35;19.73;;;8.87;;
13685;SDS011;6915;48.296;8.874;2023-01-19T06:22:06;13.33;;;6.70;;
13685;SDS011;6915;48.296;8.874;2023-01-19T06:24:37;14.13;;;6.97;;
13685;SDS011;6915;48.296;8.874;2023-01-19T06:27:07;13.63;;;7.00;;
13685;SDS011;6915;48.296;8.874;2023-01-19T06:29:37;15.63;;;7.80;;
13685;SDS011;6915;48.296;8.874;2023-01-19T06:32:07;12.77;;;7.63;;
13685;SDS011;6915;48.296;8.874;2023-01-19T06:34:36;12.87;;;7.50;;
13685;SDS011;6915;48.296;8.874;2023-01-19T06:37:09;12.83;;;7.77;;
13685;SDS011;6915;48.296;8.874;2023-01-19T06:39:40;11.73;;;6.90;;
13685;SDS011;6915;48.296;8.874;2023-01-19T06:42:10;14.57;;;8.13;;
13685;SDS011;6915;48.296;8.874;2023-01-19T06:44:40;11.07;;;7.23;;
13685;SDS011;6915;48.296;8.874;2023-01-19T06:47:11;12.83;;;7.67;;
13685;SDS011;6915;48.296;8.874;2023-01-19T06:49:41;12.13;;;7.50;;
13685;SDS011;6915;48.296;8.874;2023-01-19T06:52:12;16.47;;;8.43;;
13685;SDS011;6915;48.296;8.874;2023-01-19T06:54:44;15.40;;;8.17;;
13685;SDS011;6915;48.296;8.874;2023-01-19T06:57:13;17.03;;;8.50;;
13685;SDS011;6915;48.296;8.874;2023-01-19T06:59:43;13.23;;;8.17;;
13685;SDS011;6915;48.296;8.874;2023-01-19T07:02:13;13.33;;;7.67;;
13685;SDS011;6915;48.296;8.874;2023-01-19T07:04:44;12.07;;;6.97;;
13685;SDS011;6915;48.296;8.874;2023-01-19T07:07:16;10.40;;;6.33;;
13685;SDS011;6915;48.296;8.874;2023-01-19T07:09:46;10.90;;;6.53;;
13685;SDS011;6915;48.296;8.874;2023-01-19T07:12:16;10.00;;;5.67;;
13685;SDS011;6915;48.296;8.874;2023-01-19T07:14:44;8.37;;;5.60;;
13685;SDS011;6915;48.296;8.874;2023-01-19T07:17:13;10.57;;;6.27;;
13685;SDS011;6915;48.296;8.874;2023-01-19T07:19:42;10.03;;;5.97;;
13685;SDS011;6915;48.296;8.874;2023-01-19T07:22:13;9.63;;;5.70;;
13685;SDS011;6915;48.296;8.874;2023-01-19T07:24:44;10.93;;;6.00;;
13685;SDS011;6915;48.296;8.874;2023-01-19T07:27:13;11.90;;;6.27;;
13685;SDS011;6915;48.296;8.874;2023-01-19T07:29:43;10.07;;;5.80;;
13685;SDS011;6915;48.296;8.874;2023-01-19T07:32:13;11.03;;;5.97;;
13685;SDS011;6915;48.296;8.874;2023-01-19T07:34:43;10.13;;;6.60;;
13685;SDS011;6915;48.296;8.874;2023-01-19T07:37:13;9.67;;;6.23;;
13685;SDS011;6915;48.296;8.874;2023-01-19T07:39:46;10.30;;;6.33;;
13685;SDS011;6915;48.296;8.874;2023-01-19T07:42:13;15.53;;;8.00;;
13685;SDS011;6915;48.296;8.874;2023-01-19T07:44:43;11.23;;;6.43;;
13685;SDS011;6915;48.296;8.874;2023-01-19T07:47:12;9.67;;;6.37;;
13685;SDS011;6915;48.296;8.874;2023-01-19T07:49:40;11.60;;;5.73;;
13685;SDS011;6915;48.296;8.874;2023-01-19T07:52:10;6.93;;;4.73;;
13685;SDS011;6915;48.296;8.874;2023-01-19T07:54:42;7.47;;;5.33;;
13685;SDS011;6915;48.296;8.874;2023-01-19T07:57:16;8.93;;;4.83;;
13685;SDS011;6915;48.296;8.874;2023-01-19T07:59:46;7.70;;;5.17;;
13685;SDS011;6915;48.296;8.874;2023-01-19T08:02:15;11.93;;;6.10;;
13685;SDS011;6915;48.296;8.874;2023-01-19T08:04:46;17.43;;;9.07;;
13685;SDS011;6915;48.296;8.874;2023-01-19T08:07:16;14.17;;;7.83;;
13685;SDS011;6915;48.296;8.874;2023-01-19T08:09:45;12.03;;;6.37;;
13685;SDS011;6915;48.296;8.874;2023-01-19T08:12:16;11.50;;;6.57;;
13685;SDS011;6915;48.296;8.874;2023-01-19T08:14:46;10.30;;;6.43;;
13685;SDS011;6915;48.296;8.874;2023-01-19T08:17:16;12.03;;;6.80;;
13685;SDS011;6915;48.296;8.874;2023-01-19T08:19:45;11.10;;;6.70;;
13685;SDS011;6915;48.296;8.874;2023-01-19T08:22:15;12.43;;;7.50;;
13685;SDS011;6915;48.296;8.874;2023-01-19T08:24:46;14.00;;;6.40;;
13685;SDS011;6915;48.296;8.874;2023-01-19T08:27:18;12.20;;;6.77;;
13685;SDS011;6915;48.296;8.874;2023-01-19T08:29:48;10.43;;;6.07;;
13685;SDS011;6915;48.296;8.874;2023-01-19T08:32:18;12.03;;;6.43;;
13685;SDS011;6915;48.296;8.874;2023-01-19T08:34:47;13.13;;;8.43;;
13685;SDS011;6915;48.296;8.874;2023-01-19T08:37:17;14.03;;;7.80;;
13685;SDS011;6915;48.296;8.874;2023-01-19T08:39:47;10.53;;;6.40;;
13685;SDS011;6915;48.296;8.874;2023-01-19T08:42:19;9.97;;;6.10;;
13685;SDS011;6915;48.296;8.874;2023-01-19T08:44:48;10.77;;;6.87;;
13685;SDS011;6915;48.296;8.874;2023-01-19T08:47:17;10.03;;;6.47;;
13685;SDS011;6915;48.296;8.874;2023-01-19T08:49:46;9.57;;;6.53;;
13685;SDS011;6915;48.296;8.874;2023-01-19T08:52:16;11.10;;;7.50;;
13685;SDS011;6915;48.296;8.874;2023-01-19T08:54:47;10.57;;;6.43;;
13685;SDS011;6915;48.296;8.874;2023-01-19T08:57:19;10.60;;;6.13;;
13685;SDS011;6915;48.296;8.874;2023-01-19T08:59:48;7.53;;;5.63;;
13685;SDS011;6915;48.296;8.874;2023-01-19T09:02:19;8.00;;;5.70;;
13685;SDS011;6915;48.296;8.874;2023-01-19T09:04:48;7.30;;;5.33;;
13685;SDS011;6915;48.296;8.874;2023-01-19T09:07:18;9.10;;;5.77;;
13685;SDS011;6915;48.296;8.874;2023-01-19T09:09:47;7.83;;;5.50;;
13685;SDS011;6915;48.296;8.874;2023-01-19T09:12:16;10.47;;;6.13;;
13685;SDS011;6915;48.296;8.874;2023-01-19T09:14:47;10.60;;;6.03;;
13685;SDS011;6915;48.296;8.874;2023-01-19T09:17:16;10.53;;;5.90;;
13685;SDS011;6915;48.296;8.874;2023-01-19T09:19:47;10.37;;;6.50;;
13685;SDS011;6915;48.296;8.874;2023-01-19T09:22:16;11.83;;;6.10;;
13685;SDS011;6915;48.296;8.874;2023-01-19T09:24:46;9.77;;;6.33;;
13685;SDS011;6915;48.296;8.874;2023-01-19T09:27:17;10.10;;;6.30;;
13685;SDS011;6915;48.296;8.874;2023-01-19T09:29:48;9.23;;;5.93;;
13685;SDS011;6915;48.296;8.874;2023-01-19T09:32:18;10.93;;;6.37;;
13685;SDS011;6915;48.296;8.874;2023-01-19T09:34:49;10.07;;;6.10;;
13685;SDS011;6915;48.296;8.874;2023-01-19T09:37:19;9.27;;;5.63;;
13685;SDS011;6915;48.296;8.874;2023-01-19T09:39:49;10.40;;;6.07;;
13685;SDS011;6915;48.296;8.874;2023-01-19T09:42:19;7.60;;;5.33;;
13685;SDS011;6915;48.296;8.874;2023-01-19T09:44:55;8.57;;;5.80;;
13685;SDS011;6915;48.296;8.874;2023-01-19T09:47:25;10.60;;;6.20;;
13685;SDS011;6915;48.296;8.874;2023-01-19T09:49:57;10.00;;;5.77;;
13685;SDS011;6915;48.296;8.874;2023-01-19T09:52:28;9.47;;;5.60;;
13685;SDS011;6915;48.296;8.874;2023-01-19T09:54:58;6.63;;;4.83;;
13685;SDS011;6915;48.296;8.874;2023-01-19T09:57:27;7.57;;;5.00;;
13685;SDS011;6915;48.296;8.874;2023-01-19T09:59:58;6.60;;;4.90;;
13685;SDS011;6915;48.296;8.874;2023-01-19T10:02:31;6.87;;;4.90;;
13685;SDS011;6915;48.296;8.874;2023-01-19T10:05:11;7.90;;;5.00;;
13685;SDS011;6915;48.296;8.874;2023-01-19T10:07:57;9.40;;;5.37;;
13685;SDS011;6915;48.296;8.874;2023-01-19T10:10:36;10.80;;;4.40;;
13685;SDS011;6915;48.296;8.874;2023-01-19T10:13:13;10.07;;;5.10;;
13685;SDS011;6915;48.296;8.874;2023-01-19T10:15:53;5.90;;;4.30;;
13685;SDS011;6915;48.296;8.874;2023-01-19T10:18:32;8.90;;;4.87;;
13685;SDS011;6915;48.296;8.874;2023-01-19T10:21:13;8.70;;;4.80;;
13685;SDS011;6915;48.296;8.874;2023-01-19T10:23:44;6.93;;;4.90;;
13685;SDS011;6915;48.296;8.874;2023-01-19T10:26:17;9.97;;;5.00;;
13685;SDS011;6915;48.296;8.874;2023-01-19T10:28:49;6.27;;;4.63;;
13685;SDS011;6915;48.296;8.874;2023-01-19T10:31:22;9.20;;;4.83;;
13685;SDS011;6915;48.296;8.874;2023-01-19T10:33:52;12.90;;;5.10;;
13685;SDS011;6915;48.296;8.874;2023-01-19T10:36:24;9.27;;;4.90;;
13685;SDS011;6915;48.296;8.874;2023-01-19T10:38:59;5.90;;;4.43;;
13685;SDS011;6915;48.296;8.874;2023-01-19T10:41:34;6.63;;;4.17;;
13685;SDS011;6915;48.296;8.874;2023-01-19T10:44:08;8.10;;;4.27;;
13685;SDS011;6915;48.296;8.874;2023-01-19T10:46:42;8.10;;;4.73;;
13685;SDS011;6915;48.296;8.874;2023-01-19T10:49:25;15.73;;;7.93;;
13685;SDS011;6915;48.296;8.874;2023-01-19T10:51:57;11.83;;;7.20;;
13685;SDS011;6915;48.296;8.874;2023-01-19T10:54:25;6.50;;;4.77;;
13685;SDS011;6915;48.296;8.874;2023-01-19T10:56:56;6.30;;;3.30;;
13685;SDS011;6915;48.296;8.874;2023-01-19T10:59:31;4.67;;;3.00;;
13685;SDS011;6915;48.296;8.874;2023-01-19T11:02:13;3.77;;;2.60;;
13685;SDS011;6915;48.296;8.874;2023-01-19T11:04:45;2.90;;;2.30;;
13685;SDS011;6915;48.296;8.874;2023-01-19T11:07:18;3.40;;;2.57;;
13685;SDS011;6915;48.296;8.874;2023-01-19T11:09:51;4.43;;;2.80;;
13685;SDS011;6915;48.296;8.874;2023-01-19T11:12:46;6.17;;;3.03;;
13685;SDS011;6915;48.296;8.874;2023-01-19T11:15:21;4.97;;;2.73;;
13685;SDS011;6915;48.296;8.874;2023-01-19T11:17:56;3.10;;;2.27;;
13685;SDS011;6915;48.296;8.874;2023-01-19T11:20:27;4.57;;;2.27;;
13685;SDS011;6915;48.296;8.874;2023-01-19T11:23:03;3.73;;;2.63;;
13685;SDS011;6915;48.296;8.874;2023-01-19T11:25:32;2.87;;;2.20;;
13685;SDS011;6915;48.296;8.874;2023-01-19T11:28:02;2.50;;;1.97;;
13685;SDS011;6915;48.296;8.874;2023-01-19T11:30:31;2.93;;;2.00;;
13685;SDS011;6915;48.296;8.874;2023-01-19T11:33:04;3.70;;;2.33;;
13685;SDS011;6915;48.296;8.874;2023-01-19T11:35:48;2.70;;;2.10;;
13685;SDS011;6915;48.296;8.874;2023-01-19T11:38:27;2.37;;;2.17;;
13685;SDS011;6915;48.296;8.874;2023-01-19T11:40:57;3.60;;;2.20;;
13685;SDS011;6915;48.296;8.874;2023-01-19T11:43:30;3.73;;;2.17;;
13685;SDS011;6915;48.296;8.874;2023-01-19T11:46:00;4.93;;;2.23;;
13685;SDS011;6915;48.296;8.874;2023-01-19T11:48:32;2.90;;;2.60;;
13685;SDS011;6915;48.296;8.874;2023-01-19T11:51:05;3.67;;;2.40;;
13685;SDS011;6915;48.296;8.874;2023-01-19T11:53:39;4.00;;;2.27;;
13685;SDS011;6915;48.296;8.874;2023-01-19T11:56:12;4.47;;;2.73;;
13685;SDS011;6915;48.296;8.874;2023-01-19T11:58:43;3.97;;;2.97;;
13685;SDS011;6915;48.296;8.874;2023-01-19T12:01:15;3.80;;;2.80;;
13685;SDS011;6915;48.296;8.874;2023-01-19T12:03:50;3.23;;;2.70;;
13685;SDS011;6915;48.296;8.874;2023-01-19T12:06:23;3.50;;;2.70;;
13685;SDS011;6915;48.296;8.874;2023-01-19T12:08:57;4.00;;;3.03;;
13685;SDS011;6915;48.296;8.874;2023-01-19T12:11:31;4.30;;;2.90;;
13685;SDS011;6915;48.296;8.874;2023-01-19T12:14:05;4.37;;;3.13;;
13685;SDS011;6915;48.296;8.874;2023-01-19T12:16:40;4.23;;;2.90;;
13685;SDS011;6915;48.296;8.874;2023-01-19T12:19:15;6.10;;;3.23;;
13685;SDS011;6915;48.296;8.874;2023-01-19T12:21:48;3.43;;;3.03;;
13685;SDS011;6915;48.296;8.874;2023-01-19T12:24:21;3.77;;;3.13;;
13685;SDS011;6915;48.296;8.874;2023-01-19T12:26:54;5.50;;;3.27;;
13685;SDS011;6915;48.296;8.874;2023-01-19T12:29:26;6.53;;;3.60;;
13685;SDS011;6915;48.296;8.874;2023-01-19T12:32:15;5.13;;;3.33;;
13685;SDS011;6915;48.296;8.874;2023-01-19T12:34:56;3.87;;;2.97;;
13685;SDS011;6915;48.296;8.874;2023-01-19T12:37:35;4.93;;;3.10;;
13685;SDS011;6915;48.296;8.874;2023-01-19T12:40:17;3.47;;;3.00;;
13685;SDS011;6915;48.296;8.874;2023-01-19T12:42:54;4.20;;;3.30;;
13685;SDS011;6915;48.296;8.874;2023-01-19T12:45:28;4.67;;;3.10;;
13685;SDS011;6915;48.296;8.874;2023-01-19T12:47:57;5.03;;;2.90;;
13685;SDS011;6915;48.296;8.874;2023-01-19T12:50:30;4.47;;;2.80;;
13685;SDS011;6915;48.296;8.874;2023-01-19T12:53:03;5.23;;;2.70;;
13685;SDS011;6915;48.296;8.874;2023-01-19T12:55:41;3.23;;;2.93;;
13685;SDS011;6915;48.296;8.874;2023-01-19T12:58:12;3.53;;;2.87;;
13685;SDS011;6915;48.296;8.874;2023-01-19T13:00:47;4.87;;;3.03;;
13685;SDS011;6915;48.296;8.874;2023-01-19T13:03:44;3.10;;;2.80;;
13685;SDS011;6915;48.296;8.874;2023-01-19T13:09:28;3.13;;;2.80;;
13685;SDS011;6915;48.296;8.874;2023-01-19T13:17:59;2.77;;;2.57;;
13685;SDS011;6915;48.296;8.874;2023-01-19T13:20:32;5.77;;;2.60;;
13685;SDS011;6915;48.296;8.874;2023-01-19T13:23:17;4.80;;;3.60;;
13685;SDS011;6915;48.296;8.874;2023-01-19T13:26:00;5.40;;;3.83;;
13685;SDS011;6915;48.296;8.874;2023-01-19T13:28:31;4.10;;;3.60;;
13685;SDS011;6915;48.296;8.874;2023-01-19T13:31:03;8.03;;;3.77;;
13685;SDS011;6915;48.296;8.874;2023-01-19T13:33:38;6.57;;;4.07;;
13685;SDS011;6915;48.296;8.874;2023-01-19T13:36:20;4.13;;;3.10;;
13685;SDS011;6915;48.296;8.874;2023-01-19T13:38:51;3.53;;;3.17;;
13685;SDS011;6915;48.296;8.874;2023-01-19T13:41:24;4.27;;;3.50;;
13685;SDS011;6915;48.296;8.874;2023-01-19T13:44:00;4.83;;;3.73;;
13685;SDS011;6915;48.296;8.874;2023-01-19T13:46:33;4.53;;;3.00;;
13685;SDS011;6915;48.296;8.874;2023-01-19T13:49:04;5.57;;;3.30;;
13685;SDS011;6915;48.296;8.874;2023-01-19T13:51:44;4.93;;;3.20;;
13685;SDS011;6915;48.296;8.874;2023-01-19T13:54:31;4.77;;;3.53;;
13685;SDS011;6915;48.296;8.874;2023-01-19T13:57:01;4.23;;;3.13;;
13685;SDS011;6915;48.296;8.874;2023-01-19T13:59:32;6.57;;;3.30;;
13685;SDS011;6915;48.296;8.874;2023-01-19T14:02:03;6.17;;;3.83;;
13685;SDS011;6915;48.296;8.874;2023-01-19T14:04:37;5.50;;;3.53;;
13685;SDS011;6915;48.296;8.874;2023-01-19T14:07:19;4.30;;;3.60;;
13685;SDS011;6915;48.296;8.874;2023-01-19T14:09:59;6.23;;;3.63;;
13685;SDS011;6915;48.296;8.874;2023-01-19T14:12:28;5.27;;;3.40;;
13685;SDS011;6915;48.296;8.874;2023-01-19T14:14:57;4.67;;;3.77;;
13685;SDS011;6915;48.296;8.874;2023-01-19T14:17:29;5.37;;;3.63;;
13685;SDS011;6915;48.296;8.874;2023-01-19T14:19:58;5.77;;;3.60;;
13685;SDS011;6915;48.296;8.874;2023-01-19T14:22:38;4.10;;;3.40;;
13685;SDS011;6915;48.296;8.874;2023-01-19T14:25:28;4.97;;;3.60;;
13685;SDS011;6915;48.296;8.874;2023-01-19T14:30:53;5.80;;;3.90;;
13685;SDS011;6915;48.296;8.874;2023-01-19T14:33:31;4.90;;;3.87;;
13685;SDS011;6915;48.296;8.874;2023-01-19T14:36:07;5.57;;;3.70;;
13685;SDS011;6915;48.296;8.874;2023-01-19T14:38:58;9.33;;;3.73;;
13685;SDS011;6915;48.296;8.874;2023-01-19T14:41:28;7.47;;;3.63;;
13685;SDS011;6915;48.296;8.874;2023-01-19T14:44:06;9.23;;;3.97;;
13685;SDS011;6915;48.296;8.874;2023-01-19T14:46:36;6.37;;;3.60;;
13685;SDS011;6915;48.296;8.874;2023-01-19T14:49:12;4.40;;;3.63;;
13685;SDS011;6915;48.296;8.874;2023-01-19T14:51:46;5.17;;;3.70;;
13685;SDS011;6915;48.296;8.874;2023-01-19T14:54:18;8.43;;;4.33;;
13685;SDS011;6915;48.296;8.874;2023-01-19T14:56:59;6.03;;;4.10;;
13685;SDS011;6915;48.296;8.874;2023-01-19T14:59:28;5.50;;;4.53;;
13685;SDS011;6915;48.296;8.874;2023-01-19T15:01:58;5.53;;;4.27;;
13685;SDS011;6915;48.296;8.874;2023-01-19T15:04:28;6.27;;;4.57;;
13685;SDS011;6915;48.296;8.874;2023-01-19T15:06:57;5.70;;;4.17;;
13685;SDS011;6915;48.296;8.874;2023-01-19T15:09:27;5.30;;;4.20;;
13685;SDS011;6915;48.296;8.874;2023-01-19T15:11:57;5.10;;;4.60;;
13685;SDS011;6915;48.296;8.874;2023-01-19T15:14:27;6.87;;;4.17;;
13685;SDS011;6915;48.296;8.874;2023-01-19T15:16:58;7.40;;;4.57;;
13685;SDS011;6915;48.296;8.874;2023-01-19T15:19:27;6.17;;;4.67;;
13685;SDS011;6915;48.296;8.874;2023-01-19T15:21:57;9.00;;;4.70;;
13685;SDS011;6915;48.296;8.874;2023-01-19T15:24:28;6.40;;;4.77;;
13685;SDS011;6915;48.296;8.874;2023-01-19T15:27:00;7.20;;;5.00;;
13685;SDS011;6915;48.296;8.874;2023-01-19T15:29:31;5.33;;;4.73;;
13685;SDS011;6915;48.296;8.874;2023-01-19T15:32:00;6.00;;;4.60;;
13685;SDS011;6915;48.296;8.874;2023-01-19T15:34:30;6.67;;;4.97;;
13685;SDS011;6915;48.296;8.874;2023-01-19T15:37:00;7.83;;;5.33;;
13685;SDS011;6915;48.296;8.874;2023-01-19T15:39:31;6.77;;;4.50;;
13685;SDS011;6915;48.296;8.874;2023-01-19T15:42:01;7.50;;;4.93;;
13685;SDS011;6915;48.296;8.874;2023-01-19T15:44:32;8.27;;;4.67;;
13685;SDS011;6915;48.296;8.874;2023-01-19T15:47:01;5.37;;;4.23;;